Time;durP1;ratioP1;P1;durP2;ratioP2;P2;SDS_P1;SDS_P2;PMS_P1;PMS_P2;Temp;Humidity;BMP_temperature;BMP_pressure;BME280_temperature;BME280_humidity;BME280_pressure;Samples;Min_cycle;Max_cycle;Signal;HPM_P1;HPM_P2
2023/02/28 00:02:21;;;;;;;20.77;9.80;;;-2.10;99.90;;;;;;5034562;28;20710;-76
2023/02/28 00:04:52;;;;;;;38.53;15.13;;;-2.20;99.90;;;;;;5032272;28;20496;-76
2023/02/28 00:07:18;;;;;;;15.07;6.50;;;-2.20;99.90;;;;;;5034928;28;20024;-76
2023/02/28 00:09:44;;;;;;;63.27;25.40;;;-2.20;99.90;;;;;;5031606;28;20506;-76
2023/02/28 00:12:14;;;;;;;14.50;7.30;;;-2.20;99.90;;;;;;5036082;28;20175;-76
2023/02/28 00:14:40;;;;;;;86.10;36.97;;;-2.20;99.90;;;;;;5036591;28;20494;-77
2023/02/28 00:17:05;;;;;;;56.77;27.90;;;-2.30;99.90;;;;;;5037920;28;20023;-76
2023/02/28 00:19:31;;;;;;;7.63;4.73;;;-2.30;99.90;;;;;;5040515;28;20086;-77
2023/02/28 00:21:56;;;;;;;12.00;6.40;;;-2.20;99.90;;;;;;5039465;28;20428;-76
2023/02/28 00:24:22;;;;;;;14.57;8.83;;;-2.20;99.90;;;;;;5034782;28;20557;-77
2023/02/28 00:26:47;;;;;;;9.10;5.60;;;-2.20;99.90;;;;;;5037988;28;20025;-76
2023/02/28 00:29:13;;;;;;;10.73;7.30;;;-2.30;99.90;;;;;;5035470;28;20029;-76
2023/02/28 00:31:38;;;;;;;8.37;4.70;;;-2.40;99.90;;;;;;5038338;28;20091;-76
2023/02/28 00:34:04;;;;;;;8.47;4.03;;;-2.40;99.90;;;;;;5036047;28;20033;-76
2023/02/28 00:36:29;;;;;;;10.17;6.47;;;-2.50;99.90;;;;;;5035748;28;20030;-76
2023/02/28 00:38:55;;;;;;;8.20;4.20;;;-2.50;99.90;;;;;;5035968;28;20086;-76
2023/02/28 00:41:21;;;;;;;7.73;3.83;;;-2.50;99.90;;;;;;5035711;28;20482;-76
2023/02/28 00:43:47;;;;;;;6.60;3.10;;;-2.60;99.90;;;;;;5033962;28;20058;-76
2023/02/28 00:46:13;;;;;;;7.33;3.60;;;-2.60;99.90;;;;;;5035327;28;21350;-76
2023/02/28 00:48:38;;;;;;;6.47;3.17;;;-2.60;99.90;;;;;;5036250;28;20037;-76
2023/02/28 00:51:04;;;;;;;5.73;3.70;;;-2.60;99.90;;;;;;5037011;28;20505;-76
2023/02/28 00:53:30;;;;;;;6.23;3.60;;;-2.70;99.90;;;;;;5034959;28;20108;-77
2023/02/28 00:55:55;;;;;;;6.20;3.60;;;-2.70;99.90;;;;;;5038387;28;20100;-76
2023/02/28 00:58:21;;;;;;;6.03;3.93;;;-2.80;99.90;;;;;;5034434;28;20036;-76
2023/02/28 01:00:50;;;;;;;5.63;3.40;;;-2.80;99.90;;;;;;5036661;28;20029;-76
2023/02/28 01:03:17;;;;;;;6.27;3.50;;;-2.80;99.90;;;;;;5039060;28;20037;-77
2023/02/28 01:05:42;;;;;;;6.30;3.60;;;-2.80;99.90;;;;;;5037036;28;20149;-77
2023/02/28 01:08:08;;;;;;;7.17;3.47;;;-2.80;99.90;;;;;;5039282;28;20539;-76
2023/02/28 01:10:34;;;;;;;6.17;3.57;;;-2.90;99.90;;;;;;5041662;28;20396;-76
2023/02/28 01:12:59;;;;;;;5.90;3.70;;;-2.90;99.90;;;;;;5035862;28;21450;-76
2023/02/28 01:15:25;;;;;;;8.43;4.23;;;-2.90;99.90;;;;;;5040841;28;20153;-77
2023/02/28 01:17:50;;;;;;;7.83;3.70;;;-2.90;99.90;;;;;;5036526;28;20029;-77
2023/02/28 01:20:16;;;;;;;7.97;3.87;;;-2.90;99.90;;;;;;5039220;28;20026;-76
2023/02/28 01:22:41;;;;;;;7.53;3.93;;;-2.90;99.90;;;;;;5037870;28;20033;-76
2023/02/28 01:25:07;;;;;;;7.70;4.07;;;-3.00;99.90;;;;;;5038049;28;20033;-77
2023/02/28 01:27:33;;;;;;;7.63;3.90;;;-3.00;99.90;;;;;;5039260;28;20045;-76
2023/02/28 01:29:59;;;;;;;6.37;3.67;;;-3.00;99.90;;;;;;5037876;28;20033;-77
2023/02/28 01:32:24;;;;;;;7.47;4.13;;;-3.00;99.90;;;;;;5036794;28;20371;-76
2023/02/28 01:34:50;;;;;;;7.30;4.27;;;-3.00;99.90;;;;;;5036296;28;20033;-77
2023/02/28 01:37:15;;;;;;;6.70;4.07;;;-3.00;99.90;;;;;;5038219;28;20021;-76
2023/02/28 01:39:41;;;;;;;8.17;3.40;;;-3.00;99.90;;;;;;5037232;28;20029;-76
2023/02/28 01:42:09;;;;;;;7.00;4.13;;;-3.00;99.90;;;;;;5036208;28;20029;-76
2023/02/28 01:44:58;;;;;;;7.50;4.43;;;-3.00;99.90;;;;;;5035949;28;20142;-76
2023/02/28 01:47:28;;;;;;;6.97;3.93;;;-3.00;99.90;;;;;;5037240;28;20041;-77
2023/02/28 01:49:54;;;;;;;7.17;4.00;;;-3.00;99.90;;;;;;5037559;28;20022;-76
2023/02/28 01:52:20;;;;;;;7.73;4.03;;;-3.00;99.90;;;;;;5035312;28;20392;-76
2023/02/28 01:54:50;;;;;;;5.20;3.70;;;-3.10;99.90;;;;;;5035681;28;20052;-76
2023/02/28 01:57:19;;;;;;;7.70;4.03;;;-3.10;99.90;;;;;;5036993;28;20566;-76
2023/02/28 01:59:52;;;;;;;6.80;3.73;;;-3.10;99.90;;;;;;5035549;28;20836;-77
2023/02/28 02:02:20;;;;;;;7.87;4.50;;;-3.10;99.90;;;;;;5034468;28;20131;-76
2023/02/28 02:04:58;;;;;;;8.13;4.40;;;-3.10;99.90;;;;;;5038230;28;20437;-76
2023/02/28 02:07:24;;;;;;;5.83;3.67;;;-3.20;99.90;;;;;;5040945;28;20041;-77
2023/02/28 02:09:58;;;;;;;6.63;4.07;;;-3.20;99.90;;;;;;5039803;28;20025;-76
2023/02/28 02:12:46;;;;;;;7.43;3.97;;;-3.20;99.90;;;;;;5041655;28;20032;-76
2023/02/28 02:15:29;;;;;;;8.73;4.83;;;-3.20;99.90;;;;;;5040030;28;20482;-77
2023/02/28 02:18:00;;;;;;;8.20;4.00;;;-3.10;99.90;;;;;;5041715;28;20131;-76
2023/02/28 02:21:01;;;;;;;7.73;4.07;;;-3.10;99.90;;;;;;5039920;28;20018;-76
2023/02/28 02:23:32;;;;;;;10.57;4.83;;;-3.20;99.90;;;;;;5027221;28;20037;-76
2023/02/28 02:26:03;;;;;;;10.10;4.10;;;-3.20;99.90;;;;;;5040243;28;20021;-77
2023/02/28 02:28:56;;;;;;;7.53;4.33;;;-3.20;99.90;;;;;;5039707;28;20033;-77
2023/02/28 02:31:47;;;;;;;9.33;4.80;;;-3.30;99.90;;;;;;5039059;28;20028;-76
2023/02/28 02:34:15;;;;;;;8.87;4.43;;;-3.30;99.90;;;;;;5033976;28;20044;-77
2023/02/28 02:37:08;;;;;;;8.67;4.43;;;-3.30;99.90;;;;;;5035395;28;20074;-76
2023/02/28 02:39:43;;;;;;;9.10;4.47;;;-3.30;99.90;;;;;;5034349;28;20531;-76
2023/02/28 02:42:16;;;;;;;7.15;4.60;;;-3.30;99.90;;;;;;5034484;28;20095;-77
2023/02/28 02:44:53;;;;;;;6.47;4.40;;;-3.30;99.90;;;;;;5034757;28;20040;-76
2023/02/28 02:47:22;;;;;;;7.90;4.63;;;-3.40;99.90;;;;;;5034253;28;20472;-76
2023/02/28 02:49:54;;;;;;;8.80;4.70;;;-3.30;99.90;;;;;;5036591;28;20048;-77
2023/02/28 02:52:25;;;;;;;6.50;4.53;;;-3.40;99.90;;;;;;5035213;28;20041;-77
2023/02/28 02:54:54;;;;;;;7.07;4.20;;;-3.40;99.90;;;;;;5035376;28;20032;-77
2023/02/28 02:57:34;;;;;;;8.73;4.77;;;-3.40;99.90;;;;;;5035391;28;20034;-77
2023/02/28 03:00:03;;;;;;;7.70;4.43;;;-3.40;99.90;;;;;;5034552;28;20112;-76
2023/02/28 03:02:34;;;;;;;7.70;4.00;;;-3.40;99.90;;;;;;5035006;28;21209;-76
2023/02/28 03:05:04;;;;;;;7.43;4.77;;;-3.50;99.90;;;;;;5035226;28;20045;-77
2023/02/28 03:07:30;;;;;;;6.07;4.30;;;-3.50;99.90;;;;;;5037086;28;20021;-77
2023/02/28 03:09:57;;;;;;;8.13;4.63;;;-3.50;99.90;;;;;;5033444;28;21331;-77
2023/02/28 03:12:54;;;;;;;10.10;4.57;;;-3.50;99.90;;;;;;5031943;28;20029;-77
2023/02/28 03:15:33;;;;;;;8.67;4.80;;;-3.60;99.90;;;;;;5022873;28;20033;-77
2023/02/28 03:18:11;;;;;;;7.77;4.53;;;-3.60;99.90;;;;;;5036608;28;20021;-76
2023/02/28 03:21:02;;;;;;;8.60;4.73;;;-3.60;99.90;;;;;;5036627;28;20032;-77
2023/02/28 03:23:45;;;;;;;7.80;5.37;;;-3.60;99.90;;;;;;5036805;28;20115;-77
2023/02/28 03:26:21;;;;;;;7.10;4.33;;;-3.60;99.90;;;;;;5033404;28;20045;-77
2023/02/28 03:29:17;;;;;;;10.93;5.10;;;-3.60;99.90;;;;;;5035005;28;20438;-76
2023/02/28 03:31:51;;;;;;;8.95;5.28;;;-3.60;99.90;;;;;;5037490;28;20029;-76
2023/02/28 03:34:26;;;;;;;7.15;4.97;;;-3.60;99.90;;;;;;5033041;28;20037;-77
2023/02/28 03:36:57;;;;;;;7.10;3.58;;;-3.60;99.90;;;;;;5036375;28;20059;-76
2023/02/28 03:39:30;;;;;;;10.73;5.17;;;-3.60;99.90;;;;;;5034777;28;20029;-77
2023/02/28 03:42:04;;;;;;;8.80;4.97;;;-3.60;99.90;;;;;;5035080;28;20101;-76
2023/02/28 03:44:35;;;;;;;8.63;5.33;;;-3.60;99.90;;;;;;5037893;28;20021;-77
2023/02/28 03:47:12;;;;;;;10.73;5.70;;;-3.60;99.90;;;;;;5035189;28;20045;-77
2023/02/28 03:49:49;;;;;;;7.53;5.00;;;-3.60;99.90;;;;;;5037846;28;20032;-77
2023/02/28 03:52:18;;;;;;;9.97;5.90;;;-3.50;99.90;;;;;;5034560;28;20544;-76
2023/02/28 03:54:52;;;;;;;8.27;5.40;;;-3.50;99.90;;;;;;5035725;28;20132;-76
2023/02/28 03:57:37;;;;;;;7.65;4.57;;;-3.50;99.90;;;;;;5033138;28;20025;-76
2023/02/28 04:00:08;;;;;;;10.60;5.90;;;-3.40;99.90;;;;;;5034144;28;20028;-77
2023/02/28 04:02:34;;;;;;;12.33;5.80;;;-3.40;99.90;;;;;;5032864;28;20981;-77
2023/02/28 04:05:00;;;;;;;11.97;6.57;;;-3.30;99.90;;;;;;5036078;28;20029;-77
2023/02/28 04:07:36;;;;;;;11.00;6.67;;;-3.30;99.90;;;;;;5033633;28;20047;-77
2023/02/28 04:10:03;;;;;;;12.17;6.33;;;-3.20;99.90;;;;;;5034281;28;20381;-76
2023/02/28 04:12:29;;;;;;;9.47;6.03;;;-3.20;99.90;;;;;;5033111;28;20063;-77
2023/02/28 04:14:54;;;;;;;9.10;6.27;;;-3.20;99.90;;;;;;5034063;28;20418;-76
2023/02/28 04:17:20;;;;;;;10.60;6.03;;;-3.20;99.90;;;;;;5035296;28;20021;-76
2023/02/28 04:19:45;;;;;;;9.80;5.90;;;-3.20;99.90;;;;;;5034618;28;20031;-77
2023/02/28 04:22:11;;;;;;;12.67;5.83;;;-3.10;99.90;;;;;;5034130;28;20377;-77
2023/02/28 04:24:36;;;;;;;9.53;5.90;;;-3.10;99.90;;;;;;5032005;28;20040;-77
2023/02/28 04:27:02;;;;;;;10.67;6.20;;;-3.00;99.90;;;;;;5031619;28;20048;-77
2023/02/28 04:29:31;;;;;;;10.70;6.83;;;-3.00;99.90;;;;;;5035577;28;20090;-76
2023/02/28 04:31:58;;;;;;;10.77;6.37;;;-3.00;99.90;;;;;;5033335;28;21058;-76
2023/02/28 04:34:25;;;;;;;11.63;6.53;;;-3.00;99.90;;;;;;5034227;28;20040;-76
2023/02/28 04:36:53;;;;;;;9.77;6.03;;;-3.00;99.90;;;;;;5035514;28;20486;-77
2023/02/28 04:39:19;;;;;;;9.23;5.97;;;-3.00;99.90;;;;;;5037478;28;20033;-77
2023/02/28 04:41:45;;;;;;;10.10;6.57;;;-2.90;99.90;;;;;;5037396;28;20921;-76
2023/02/28 04:44:10;;;;;;;11.97;7.40;;;-2.90;99.90;;;;;;5036813;28;20017;-77
2023/02/28 04:46:36;;;;;;;11.77;6.90;;;-2.90;99.90;;;;;;5037641;28;20473;-77
2023/02/28 04:49:02;;;;;;;9.73;6.30;;;-2.90;99.90;;;;;;5038401;28;20466;-77
2023/02/28 04:51:28;;;;;;;10.80;6.67;;;-2.90;99.90;;;;;;5038842;28;20025;-77
2023/02/28 04:53:53;;;;;;;13.47;6.97;;;-2.80;99.90;;;;;;5038721;28;20528;-77
2023/02/28 04:56:19;;;;;;;12.27;7.00;;;-2.80;99.90;;;;;;5038194;28;20033;-77
2023/02/28 04:58:45;;;;;;;9.57;6.50;;;-2.80;99.90;;;;;;5036665;28;20429;-76
2023/02/28 05:01:22;;;;;;;11.30;7.03;;;-2.70;99.90;;;;;;5035228;28;20374;-77
2023/02/28 05:03:48;;;;;;;12.53;7.07;;;-2.70;99.90;;;;;;5034103;28;20584;-77
2023/02/28 05:06:14;;;;;;;17.63;8.50;;;-2.70;99.90;;;;;;5037678;28;20033;-76
2023/02/28 05:08:40;;;;;;;12.13;7.13;;;-2.70;99.90;;;;;;5036354;28;20030;-76
2023/02/28 05:11:13;;;;;;;14.07;7.40;;;-2.70;99.90;;;;;;5036953;28;20029;-76
2023/02/28 05:13:39;;;;;;;13.60;7.93;;;-2.60;99.90;;;;;;5038217;28;20037;-76
2023/02/28 05:16:05;;;;;;;17.83;11.10;;;-2.60;99.90;;;;;;5035731;28;20083;-76
2023/02/28 05:18:30;;;;;;;15.33;10.20;;;-2.60;99.90;;;;;;5034581;28;20029;-76
2023/02/28 05:20:56;;;;;;;15.03;8.13;;;-2.60;99.90;;;;;;5036056;28;20033;-76
2023/02/28 05:23:22;;;;;;;13.43;9.20;;;-2.60;99.90;;;;;;5032814;28;20040;-76
2023/02/28 05:25:48;;;;;;;14.63;10.93;;;-2.50;99.90;;;;;;5031416;28;20584;-76
2023/02/28 05:28:14;;;;;;;13.70;9.13;;;-2.50;99.90;;;;;;5034504;28;20029;-76
2023/02/28 05:30:39;;;;;;;14.17;9.23;;;-2.50;99.90;;;;;;5033003;28;20036;-76
2023/02/28 05:33:05;;;;;;;14.57;8.23;;;-2.50;99.90;;;;;;5034461;28;20029;-76
2023/02/28 05:35:31;;;;;;;13.93;8.57;;;-2.50;99.90;;;;;;5036562;28;20055;-76
2023/02/28 05:37:56;;;;;;;14.00;8.47;;;-2.50;99.90;;;;;;5036126;28;20041;-76
2023/02/28 05:40:22;;;;;;;12.70;8.17;;;-2.50;99.90;;;;;;5035361;28;20645;-76
2023/02/28 05:42:49;;;;;;;11.90;7.67;;;-2.40;99.90;;;;;;5033202;28;20037;-76
2023/02/28 05:45:15;;;;;;;50.13;22.50;;;-2.40;99.90;;;;;;5033735;28;20036;-76
2023/02/28 05:47:40;;;;;;;20.20;12.07;;;-2.40;99.90;;;;;;5029537;28;20401;-76
2023/02/28 05:50:06;;;;;;;16.40;9.70;;;-2.40;99.90;;;;;;5029068;28;20029;-76
2023/02/28 05:52:32;;;;;;;23.13;11.60;;;-2.40;99.90;;;;;;5025721;28;20360;-76
2023/02/28 05:54:58;;;;;;;18.00;9.83;;;-2.40;99.90;;;;;;5033226;28;20025;-76
2023/02/28 05:57:23;;;;;;;19.80;10.20;;;-2.40;99.90;;;;;;5031378;28;20715;-76
2023/02/28 05:59:49;;;;;;;15.27;9.10;;;-2.40;99.90;;;;;;5031585;28;20141;-76
2023/02/28 06:02:16;;;;;;;16.90;9.93;;;-2.40;99.90;;;;;;5036677;28;20024;-76
2023/02/28 06:04:43;;;;;;;17.37;10.37;;;-2.50;99.90;;;;;;5031184;28;20029;-76
2023/02/28 06:07:09;;;;;;;15.90;9.70;;;-2.40;99.90;;;;;;5031551;28;20054;-76
2023/02/28 06:09:35;;;;;;;18.13;9.27;;;-2.40;99.90;;;;;;5030069;28;20481;-76
2023/02/28 06:12:09;;;;;;;16.43;10.97;;;-2.30;99.90;;;;;;5032696;28;20087;-72
2023/02/28 06:14:35;;;;;;;22.30;10.80;;;-2.40;99.90;;;;;;5032422;28;20028;-72
2023/02/28 06:17:02;;;;;;;17.47;10.47;;;-2.30;99.90;;;;;;5033778;28;20014;-72
2023/02/28 06:19:29;;;;;;;17.37;10.63;;;-2.30;99.90;;;;;;5033051;28;20111;-72
2023/02/28 06:21:56;;;;;;;17.93;10.87;;;-2.40;99.90;;;;;;5033044;28;20056;-72
2023/02/28 06:24:24;;;;;;;20.40;10.30;;;-2.30;99.90;;;;;;5027195;28;20021;-72
2023/02/28 06:26:50;;;;;;;14.40;9.43;;;-2.30;99.90;;;;;;5030373;28;20063;-72
2023/02/28 06:29:18;;;;;;;20.67;11.47;;;-2.20;99.90;;;;;;5031768;28;20018;-72
2023/02/28 06:31:45;;;;;;;17.13;10.40;;;-2.20;99.90;;;;;;5028782;28;20032;-72
2023/02/28 06:34:12;;;;;;;22.93;11.07;;;-2.20;99.90;;;;;;5028630;28;20373;-72
2023/02/28 06:36:38;;;;;;;17.63;11.73;;;-2.30;99.90;;;;;;5027051;28;20024;-72
2023/02/28 06:39:05;;;;;;;18.77;11.37;;;-2.30;99.90;;;;;;5027000;28;20025;-72
2023/02/28 06:41:31;;;;;;;18.47;10.67;;;-2.20;99.90;;;;;;5032500;28;20068;-72
2023/02/28 06:43:56;;;;;;;21.13;13.20;;;-2.20;99.90;;;;;;5034039;28;21076;-72
2023/02/28 06:46:23;;;;;;;22.13;12.20;;;-2.30;99.90;;;;;;5029046;28;20057;-73
2023/02/28 06:48:49;;;;;;;25.50;11.87;;;-2.20;99.90;;;;;;5023442;28;20112;-72
2023/02/28 06:51:17;;;;;;;20.17;11.27;;;-2.10;99.90;;;;;;5024101;28;20844;-73
2023/02/28 06:53:43;;;;;;;20.30;12.47;;;-2.20;99.90;;;;;;5023664;28;20060;-72
2023/02/28 06:56:13;;;;;;;20.27;13.13;;;-2.20;99.90;;;;;;5023155;28;20050;-72
2023/02/28 06:58:39;;;;;;;23.20;12.67;;;-2.20;99.90;;;;;;5020396;28;20136;-72
2023/02/28 07:01:05;;;;;;;20.03;12.53;;;-2.20;99.90;;;;;;5022676;28;20116;-72
2023/02/28 07:03:31;;;;;;;20.50;10.93;;;-2.20;99.90;;;;;;5023619;28;20029;-72
2023/02/28 07:05:56;;;;;;;22.53;11.77;;;-2.20;99.90;;;;;;5026149;28;21400;-72
2023/02/28 07:08:23;;;;;;;24.37;12.03;;;-2.20;99.90;;;;;;5023749;28;20060;-73
2023/02/28 07:10:55;;;;;;;24.87;12.97;;;-2.20;99.90;;;;;;5014330;28;20033;-73
2023/02/28 07:13:22;;;;;;;18.33;11.73;;;-2.20;99.90;;;;;;5023736;28;20040;-73
2023/02/28 07:16:02;;;;;;;22.87;12.80;;;-2.10;99.90;;;;;;5025860;28;20032;-73
2023/02/28 07:18:28;;;;;;;18.80;11.73;;;-2.10;99.90;;;;;;5030609;28;20032;-72
2023/02/28 07:20:54;;;;;;;23.10;12.60;;;-2.20;99.90;;;;;;5032002;28;20017;-72
2023/02/28 07:23:20;;;;;;;18.00;11.47;;;-2.10;99.90;;;;;;5028661;28;20398;-73
2023/02/28 07:25:46;;;;;;;22.83;12.53;;;-2.10;99.90;;;;;;5027101;28;20033;-75
2023/02/28 07:28:12;;;;;;;21.50;12.47;;;-2.00;99.90;;;;;;5029082;28;20087;-75
2023/02/28 07:30:38;;;;;;;24.60;13.30;;;-2.00;99.90;;;;;;5032720;28;20036;-75
2023/02/28 07:33:04;;;;;;;23.70;13.07;;;-2.00;99.90;;;;;;5029612;28;20025;-75
2023/02/28 07:35:30;;;;;;;25.90;15.27;;;-2.00;99.90;;;;;;5027367;28;20037;-75
2023/02/28 07:37:57;;;;;;;23.00;13.47;;;-2.00;99.90;;;;;;5025488;28;20058;-75
2023/02/28 07:40:23;;;;;;;27.07;14.43;;;-2.00;99.90;;;;;;5014165;28;20635;-75
2023/02/28 07:42:49;;;;;;;23.33;15.07;;;-2.00;99.90;;;;;;5022644;28;20040;-75
2023/02/28 07:45:14;;;;;;;24.13;15.53;;;-1.90;99.90;;;;;;5022978;28;20037;-75
2023/02/28 07:47:41;;;;;;;25.20;15.57;;;-1.90;99.90;;;;;;5023294;28;20045;-74
2023/02/28 07:50:10;;;;;;;19.60;13.13;;;-1.90;99.90;;;;;;5023761;28;20057;-74
2023/02/28 07:52:40;;;;;;;22.13;13.90;;;-1.90;99.90;;;;;;5017842;28;20029;-75
2023/02/28 07:55:07;;;;;;;21.63;13.90;;;-1.90;99.90;;;;;;5022144;28;20025;-75
2023/02/28 07:57:32;;;;;;;20.40;14.00;;;-1.80;99.90;;;;;;5022011;28;20810;-74
2023/02/28 07:59:58;;;;;;;19.70;13.57;;;-1.90;99.90;;;;;;5013746;28;20122;-75
2023/02/28 08:02:23;;;;;;;22.93;14.90;;;-1.80;99.90;;;;;;5020507;28;20034;-75
2023/02/28 08:04:49;;;;;;;20.67;13.53;;;-1.80;99.90;;;;;;5025417;28;20025;-75
2023/02/28 08:07:16;;;;;;;27.93;15.77;;;-1.70;99.90;;;;;;5025116;28;20025;-75
2023/02/28 08:09:42;;;;;;;22.97;16.13;;;-1.70;99.90;;;;;;5023547;28;20029;-75
2023/02/28 08:12:09;;;;;;;21.20;14.50;;;-1.80;99.90;;;;;;5023372;28;20567;-75
2023/02/28 08:14:35;;;;;;;26.63;14.87;;;-1.70;99.90;;;;;;5025824;28;20041;-75
2023/02/28 08:17:01;;;;;;;25.73;14.57;;;-1.70;99.90;;;;;;5024335;28;20026;-74
2023/02/28 08:19:27;;;;;;;23.53;14.33;;;-1.60;99.90;;;;;;5023699;28;20067;-75
2023/02/28 08:21:52;;;;;;;25.10;14.10;;;-1.60;99.90;;;;;;5024346;28;20080;-75
2023/02/28 08:24:18;;;;;;;24.70;14.77;;;-1.60;99.90;;;;;;5027082;28;20100;-75
2023/02/28 08:26:44;;;;;;;21.87;14.23;;;-1.60;99.90;;;;;;5024558;28;20060;-74
2023/02/28 08:29:09;;;;;;;24.67;14.40;;;-1.60;99.90;;;;;;5027889;28;20056;-75
2023/02/28 08:31:35;;;;;;;23.30;14.83;;;-1.60;99.90;;;;;;5026358;28;20037;-75
2023/02/28 08:34:18;;;;;;;26.97;14.10;;;-1.70;99.90;;;;;;5027369;28;20041;-75
2023/02/28 08:36:45;;;;;;;22.10;14.13;;;-1.60;99.90;;;;;;5026283;28;20435;-75
2023/02/28 08:39:12;;;;;;;27.23;16.70;;;-1.60;99.90;;;;;;5024481;28;20037;-75
2023/02/28 08:41:37;;;;;;;27.10;16.73;;;-1.60;99.90;;;;;;5026036;28;20037;-74
2023/02/28 08:44:03;;;;;;;27.17;15.67;;;-1.60;99.90;;;;;;5024843;28;20029;-75
2023/02/28 08:46:29;;;;;;;30.97;16.53;;;-1.60;99.90;;;;;;5024091;28;20063;-74
2023/02/28 08:48:59;;;;;;;27.90;17.87;;;-1.60;99.90;;;;;;5022684;28;20025;-75
2023/02/28 08:51:26;;;;;;;27.20;15.63;;;-1.50;99.90;;;;;;5026425;28;20110;-75
2023/02/28 08:54:01;;;;;;;26.37;15.47;;;-1.60;99.90;;;;;;5023408;28;20038;-74
2023/02/28 08:56:28;;;;;;;29.10;15.98;;;-1.50;99.90;;;;;;5021592;28;21758;-75
2023/02/28 08:58:55;;;;;;;24.07;16.23;;;-1.50;99.90;;;;;;5021995;28;20038;-75
2023/02/28 09:01:23;;;;;;;26.93;17.67;;;-1.50;99.90;;;;;;5021613;28;20033;-75
2023/02/28 09:03:50;;;;;;;27.10;16.43;;;-1.60;99.90;;;;;;5027685;28;20080;-75
2023/02/28 09:06:18;;;;;;;27.47;17.07;;;-1.50;99.90;;;;;;5032927;28;20113;-75
2023/02/28 09:08:44;;;;;;;26.50;16.67;;;-1.50;99.90;;;;;;5022102;28;20501;-75
2023/02/28 09:11:10;;;;;;;23.13;15.20;;;-1.40;99.90;;;;;;5016250;28;20034;-75
2023/02/28 09:13:36;;;;;;;29.47;17.43;;;-1.40;99.90;;;;;;5022423;28;20037;-75
2023/02/28 09:16:04;;;;;;;27.77;17.23;;;-1.30;99.90;;;;;;5022031;28;20033;-75
2023/02/28 09:18:30;;;;;;;30.30;16.33;;;-1.30;99.90;;;;;;5021607;28;20030;-74
2023/02/28 09:20:57;;;;;;;33.10;16.20;;;-1.30;99.90;;;;;;5021692;28;20041;-75
2023/02/28 09:23:23;;;;;;;28.20;15.67;;;-1.30;99.90;;;;;;5027821;28;20021;-75
2023/02/28 09:25:53;;;;;;;29.23;15.60;;;-1.20;99.90;;;;;;5027096;28;20044;-75
2023/02/28 09:28:19;;;;;;;27.73;17.10;;;-1.20;99.90;;;;;;5025944;28;20468;-75
2023/02/28 09:30:47;;;;;;;22.07;14.47;;;-1.10;99.90;;;;;;5030040;28;20060;-75
2023/02/28 09:33:14;;;;;;;33.80;17.23;;;-1.10;99.90;;;;;;5031349;28;20017;-75
2023/02/28 09:35:40;;;;;;;26.20;15.10;;;-1.10;99.90;;;;;;5031957;28;20531;-75
2023/02/28 09:38:07;;;;;;;25.87;15.17;;;-1.10;99.90;;;;;;5029381;28;20048;-75
2023/02/28 09:40:37;;;;;;;22.10;14.87;;;-1.00;99.90;;;;;;5022971;28;20056;-75
2023/02/28 09:43:04;;;;;;;23.50;14.87;;;-1.00;99.90;;;;;;5027559;28;20040;-75
2023/02/28 09:45:37;;;;;;;21.27;14.83;;;-0.90;99.90;;;;;;5027494;28;20057;-75
2023/02/28 09:48:15;;;;;;;22.90;15.87;;;-0.80;99.90;;;;;;5025133;28;20081;-75
2023/02/28 09:51:04;;;;;;;21.47;13.80;;;-0.80;99.90;;;;;;5025727;28;20035;-75
2023/02/28 09:53:38;;;;;;;20.03;14.13;;;-0.80;99.90;;;;;;5025584;28;20041;-75
2023/02/28 09:56:14;;;;;;;29.67;16.30;;;-0.80;99.90;;;;;;5027517;28;20033;-75
2023/02/28 09:58:51;;;;;;;22.87;15.43;;;-0.70;99.90;;;;;;5027340;28;20025;-75
2023/02/28 10:01:57;;;;;;;23.33;14.20;;;-0.70;99.90;;;;;;5024474;28;20124;-75
2023/02/28 10:04:51;;;;;;;24.30;15.00;;;-0.60;99.90;;;;;;5023279;28;20033;-76
2023/02/28 10:07:55;;;;;;;25.97;14.17;;;-0.60;99.90;;;;;;5027256;28;20029;-76
2023/02/28 10:10:32;;;;;;;21.90;13.73;;;-0.60;99.90;;;;;;5022612;28;20179;-76
2023/02/28 10:13:01;;;;;;;22.83;14.40;;;-0.60;99.90;;;;;;5027152;28;20061;-76
2023/02/28 10:15:31;;;;;;;29.13;18.97;;;-0.50;99.90;;;;;;5025173;28;20026;-76
2023/02/28 10:18:08;;;;;;;22.50;14.60;;;-0.40;99.90;;;;;;5026520;28;20041;-76
2023/02/28 10:20:38;;;;;;;21.10;12.97;;;-0.30;99.90;;;;;;5023569;28;20026;-76
2023/02/28 10:23:18;;;;;;;23.97;14.37;;;-0.30;99.90;;;;;;5026245;28;20029;-76
2023/02/28 10:25:52;;;;;;;23.93;14.53;;;-0.30;99.90;;;;;;5022864;28;20021;-76
2023/02/28 10:28:18;;;;;;;19.57;14.07;;;-0.30;99.90;;;;;;5025405;28;20032;-76
2023/02/28 10:30:49;;;;;;;19.70;13.47;;;-0.10;99.90;;;;;;5024236;28;20025;-76
2023/02/28 10:33:28;;;;;;;21.20;12.57;;;0.10;99.90;;;;;;5032941;28;20053;-76
2023/02/28 10:35:54;;;;;;;19.97;13.33;;;0.30;99.90;;;;;;5033453;28;20044;-76
2023/02/28 10:38:35;;;;;;;19.33;12.23;;;0.50;99.90;;;;;;5037144;28;20020;-76
2023/02/28 10:41:15;;;;;;;22.90;13.10;;;0.80;99.90;;;;;;5033266;28;20029;-76
2023/02/28 10:43:44;;;;;;;16.93;12.43;;;1.00;99.90;;;;;;5034884;28;20013;-76
2023/02/28 10:46:10;;;;;;;20.20;12.77;;;1.10;99.90;;;;;;5034882;28;20044;-77
2023/02/28 10:48:45;;;;;;;23.47;13.43;;;1.20;99.90;;;;;;5028603;28;20596;-77
2023/02/28 10:51:16;;;;;;;24.40;14.38;;;1.30;99.90;;;;;;5032907;28;20040;-77
2023/02/28 10:53:47;;;;;;;18.00;12.63;;;1.50;99.90;;;;;;5030016;28;20038;-77
2023/02/28 10:56:22;;;;;;;26.77;12.53;;;1.70;99.90;;;;;;5033492;28;20029;-76
2023/02/28 10:58:57;;;;;;;14.05;9.57;;;1.90;99.90;;;;;;5030961;28;20071;-76
2023/02/28 11:01:42;;;;;;;21.30;12.80;;;2.00;99.90;;;;;;5031080;28;20023;-76
2023/02/28 11:04:22;;;;;;;14.07;9.40;;;2.20;99.90;;;;;;5032975;28;20037;-76
2023/02/28 11:06:56;;;;;;;17.80;12.77;;;2.40;99.90;;;;;;5032971;28;20079;-76
2023/02/28 11:09:38;;;;;;;21.03;13.50;;;2.30;99.90;;;;;;5035831;28;20105;-76
2023/02/28 11:12:07;;;;;;;28.13;15.63;;;2.40;99.90;;;;;;5033042;28;20021;-76
2023/02/28 11:14:39;;;;;;;37.60;20.07;;;2.50;99.90;;;;;;5038001;28;20030;-75
2023/02/28 11:17:20;;;;;;;44.57;25.90;;;2.30;99.90;;;;;;5030315;28;20049;-75
2023/02/28 11:19:49;;;;;;;61.53;31.47;;;2.00;99.90;;;;;;5036079;28;20026;-75
2023/02/28 11:22:21;;;;;;;53.03;27.83;;;1.70;99.90;;;;;;5032717;28;20028;-74
2023/02/28 11:24:51;;;;;;;115.03;45.73;;;1.40;99.90;;;;;;5033481;28;20033;-74
2023/02/28 11:27:49;;;;;;;213.93;78.43;;;1.30;99.90;;;;;;5032395;28;20029;-74
2023/02/28 11:30:39;;;;;;;234.70;93.80;;;1.20;99.90;;;;;;5032838;28;21372;-76
2023/02/28 11:33:29;;;;;;;104.40;39.80;;;1.10;99.90;;;;;;5034217;28;20057;-77
2023/02/28 11:36:01;;;;;;;104.57;39.17;;;1.00;99.90;;;;;;5034090;28;20508;-76
2023/02/28 11:38:27;;;;;;;283.30;78.67;;;1.00;99.90;;;;;;5034876;28;20355;-77
2023/02/28 11:40:57;;;;;;;62.33;27.03;;;0.90;99.90;;;;;;5031971;28;20029;-77
2023/02/28 11:43:46;;;;;;;145.47;43.63;;;0.90;99.90;;;;;;5034939;28;20064;-77
2023/02/28 11:46:21;;;;;;;273.40;71.87;;;0.90;99.90;;;;;;5034267;28;20085;-76
2023/02/28 11:48:58;;;;;;;;;;;0.90;99.90;;;;;;5037671;28;20358;-76
2023/02/28 11:51:31;;;;;;;285.67;76.17;;;1.00;99.90;;;;;;5038419;28;19908;-76
2023/02/28 11:54:18;;;;;;;199.43;56.27;;;1.10;99.90;;;;;;5035591;28;20501;-77
2023/02/28 11:56:52;;;;;;;197.93;59.20;;;1.40;99.90;;;;;;5033381;28;20028;-77
2023/02/28 11:59:35;;;;;;;224.63;66.70;;;1.80;99.90;;;;;;5035429;28;20016;-77
2023/02/28 12:02:04;;;;;;;186.13;61.60;;;2.10;99.90;;;;;;5032303;28;20014;-77
2023/02/28 12:04:48;;;;;;;35.77;18.57;;;2.20;99.90;;;;;;5034039;28;20024;-76
2023/02/28 12:07:26;;;;;;;119.13;40.50;;;2.30;99.90;;;;;;5034897;28;20028;-76
2023/02/28 12:10:15;;;;;;;82.53;33.20;;;2.70;99.90;;;;;;5035676;28;20021;-76
2023/02/28 12:13:08;;;;;;;87.20;32.13;;;2.70;99.90;;;;;;5029702;28;20060;-76
2023/02/28 12:15:42;;;;;;;198.77;66.30;;;2.90;99.90;;;;;;5034289;28;20009;-76
2023/02/28 12:18:17;;;;;;;63.30;25.98;;;3.10;99.90;;;;;;5028315;28;20031;-76
2023/02/28 12:21:05;;;;;;;22.67;13.32;;;3.30;99.90;;;;;;5033248;28;20366;-76
2023/02/28 12:24:00;;;;;;;51.20;21.73;;;3.60;99.90;;;;;;5030566;28;20356;-76
2023/02/28 12:26:41;;;;;;;32.37;17.60;;;3.80;99.90;;;;;;5027124;28;20406;-76
2023/02/28 12:29:25;;;;;;;21.67;13.57;;;3.90;99.90;;;;;;5032484;28;20028;-76
2023/02/28 12:32:14;;;;;;;18.53;12.40;;;4.10;99.90;;;;;;5031229;28;20028;-77
2023/02/28 12:34:49;;;;;;;19.67;13.07;;;4.10;99.90;;;;;;5029676;28;20972;-76
2023/02/28 12:37:31;;;;;;;18.95;11.48;;;4.30;99.90;;;;;;5033988;28;20074;-76
2023/02/28 12:40:08;;;;;;;17.97;11.00;;;4.20;99.90;;;;;;5030245;28;20386;-77
2023/02/28 12:42:39;;;;;;;17.33;10.80;;;4.40;99.90;;;;;;5034543;28;20020;-76
2023/02/28 12:45:22;;;;;;;15.93;11.07;;;4.40;99.90;;;;;;5024489;28;20035;-76
2023/02/28 12:47:52;;;;;;;14.33;11.03;;;4.50;99.90;;;;;;5026155;28;21261;-74
2023/02/28 12:50:19;;;;;;;15.63;10.60;;;4.50;99.90;;;;;;5024050;28;20435;-73
2023/02/28 12:53:05;;;;;;;16.93;11.70;;;4.60;99.90;;;;;;5022961;28;20026;-74
2023/02/28 12:55:54;;;;;;;15.40;10.60;;;4.60;99.90;;;;;;5022329;28;20072;-74